sensor_id;sensor_type;location;lat;lon;timestamp;P1;durP1;ratioP1;P2;durP2;ratioP2
78887;SDS011;68276;49.326;8.690;2024-02-21T00:01:16;17.70;;;3.97;;
78887;SDS011;68276;49.326;8.690;2024-02-21T00:03:43;11.35;;;3.33;;
78887;SDS011;68276;49.326;8.690;2024-02-21T00:06:08;13.88;;;3.22;;
78887;SDS011;68276;49.326;8.690;2024-02-21T00:08:33;16.17;;;4.33;;
78887;SDS011;68276;49.326;8.690;2024-02-21T00:10:59;9.83;;;2.80;;
78887;SDS011;68276;49.326;8.690;2024-02-21T00:13:24;15.20;;;3.63;;
78887;SDS011;68276;49.326;8.690;2024-02-21T00:15:50;11.60;;;3.00;;
78887;SDS011;68276;49.326;8.690;2024-02-21T00:18:15;12.25;;;3.15;;
78887;SDS011;68276;49.326;8.690;2024-02-21T00:20:40;9.07;;;2.70;;
78887;SDS011;68276;49.326;8.690;2024-02-21T00:23:06;12.20;;;2.83;;
78887;SDS011;68276;49.326;8.690;2024-02-21T00:25:31;15.13;;;2.73;;
78887;SDS011;68276;49.326;8.690;2024-02-21T00:27:57;13.65;;;3.50;;
78887;SDS011;68276;49.326;8.690;2024-02-21T00:30:22;12.20;;;2.97;;
78887;SDS011;68276;49.326;8.690;2024-02-21T00:32:47;10.57;;;2.90;;
78887;SDS011;68276;49.326;8.690;2024-02-21T00:35:13;11.95;;;2.92;;
78887;SDS011;68276;49.326;8.690;2024-02-21T00:37:39;10.02;;;3.15;;
78887;SDS011;68276;49.326;8.690;2024-02-21T00:40:05;10.33;;;3.40;;
78887;SDS011;68276;49.326;8.690;2024-02-21T00:42:31;11.50;;;3.00;;
78887;SDS011;68276;49.326;8.690;2024-02-21T00:44:56;10.77;;;3.13;;
78887;SDS011;68276;49.326;8.690;2024-02-21T00:47:21;10.07;;;2.70;;
78887;SDS011;68276;49.326;8.690;2024-02-21T00:49:47;12.00;;;2.72;;
78887;SDS011;68276;49.326;8.690;2024-02-21T00:52:12;9.65;;;2.40;;
78887;SDS011;68276;49.326;8.690;2024-02-21T00:54:37;9.60;;;3.17;;
78887;SDS011;68276;49.326;8.690;2024-02-21T00:57:03;13.23;;;2.80;;
78887;SDS011;68276;49.326;8.690;2024-02-21T00:59:28;12.07;;;2.80;;
78887;SDS011;68276;49.326;8.690;2024-02-21T01:01:54;8.73;;;2.70;;
78887;SDS011;68276;49.326;8.690;2024-02-21T01:04:19;10.20;;;3.07;;
78887;SDS011;68276;49.326;8.690;2024-02-21T01:06:44;9.57;;;2.58;;
78887;SDS011;68276;49.326;8.690;2024-02-21T01:09:13;12.03;;;2.87;;
78887;SDS011;68276;49.326;8.690;2024-02-21T01:11:39;13.40;;;3.20;;
78887;SDS011;68276;49.326;8.690;2024-02-21T01:14:04;13.43;;;2.90;;
78887;SDS011;68276;49.326;8.690;2024-02-21T01:16:29;10.13;;;2.83;;
78887;SDS011;68276;49.326;8.690;2024-02-21T01:18:55;12.10;;;2.97;;
78887;SDS011;68276;49.326;8.690;2024-02-21T01:21:20;11.07;;;2.83;;
78887;SDS011;68276;49.326;8.690;2024-02-21T01:23:46;12.70;;;3.13;;
78887;SDS011;68276;49.326;8.690;2024-02-21T01:26:11;11.33;;;3.23;;
78887;SDS011;68276;49.326;8.690;2024-02-21T01:28:38;11.55;;;2.80;;
78887;SDS011;68276;49.326;8.690;2024-02-21T01:31:04;14.10;;;3.13;;
78887;SDS011;68276;49.326;8.690;2024-02-21T01:33:30;9.40;;;2.60;;
78887;SDS011;68276;49.326;8.690;2024-02-21T01:36:00;12.90;;;3.33;;
78887;SDS011;68276;49.326;8.690;2024-02-21T01:38:27;10.95;;;3.10;;
78887;SDS011;68276;49.326;8.690;2024-02-21T01:43:19;9.23;;;2.67;;
78887;SDS011;68276;49.326;8.690;2024-02-21T01:45:51;10.43;;;2.70;;
78887;SDS011;68276;49.326;8.690;2024-02-21T01:48:18;12.15;;;3.05;;
78887;SDS011;68276;49.326;8.690;2024-02-21T01:50:44;14.77;;;3.03;;
78887;SDS011;68276;49.326;8.690;2024-02-21T01:53:11;12.32;;;3.47;;
78887;SDS011;68276;49.326;8.690;2024-02-21T01:55:44;12.25;;;2.95;;
78887;SDS011;68276;49.326;8.690;2024-02-21T01:58:11;10.60;;;3.13;;
78887;SDS011;68276;49.326;8.690;2024-02-21T02:00:43;10.13;;;2.90;;
78887;SDS011;68276;49.326;8.690;2024-02-21T02:03:10;11.20;;;3.30;;
78887;SDS011;68276;49.326;8.690;2024-02-21T02:05:49;12.98;;;3.72;;
78887;SDS011;68276;49.326;8.690;2024-02-21T02:10:40;11.10;;;2.80;;
78887;SDS011;68276;49.326;8.690;2024-02-21T02:13:06;9.15;;;2.90;;
78887;SDS011;68276;49.326;8.690;2024-02-21T02:15:42;13.68;;;3.47;;
78887;SDS011;68276;49.326;8.690;2024-02-21T02:18:09;9.38;;;2.75;;
78887;SDS011;68276;49.326;8.690;2024-02-21T02:20:35;13.20;;;3.35;;
78887;SDS011;68276;49.326;8.690;2024-02-21T02:23:07;10.07;;;2.50;;
78887;SDS011;68276;49.326;8.690;2024-02-21T02:25:35;12.98;;;3.15;;
78887;SDS011;68276;49.326;8.690;2024-02-21T02:28:05;11.00;;;2.80;;
78887;SDS011;68276;49.326;8.690;2024-02-21T02:30:34;9.32;;;2.40;;
78887;SDS011;68276;49.326;8.690;2024-02-21T02:33:04;12.35;;;2.95;;
78887;SDS011;68276;49.326;8.690;2024-02-21T02:35:29;11.30;;;3.10;;
78887;SDS011;68276;49.326;8.690;2024-02-21T02:37:55;10.63;;;2.92;;
78887;SDS011;68276;49.326;8.690;2024-02-21T02:40:21;15.68;;;3.35;;
78887;SDS011;68276;49.326;8.690;2024-02-21T02:42:46;9.55;;;2.67;;
78887;SDS011;68276;49.326;8.690;2024-02-21T02:45:13;13.30;;;3.00;;
78887;SDS011;68276;49.326;8.690;2024-02-21T02:47:40;12.65;;;2.70;;
78887;SDS011;68276;49.326;8.690;2024-02-21T02:50:05;10.27;;;2.57;;
78887;SDS011;68276;49.326;8.690;2024-02-21T02:52:31;13.57;;;3.20;;
78887;SDS011;68276;49.326;8.690;2024-02-21T02:54:56;10.53;;;2.90;;
78887;SDS011;68276;49.326;8.690;2024-02-21T02:57:22;8.73;;;2.60;;
78887;SDS011;68276;49.326;8.690;2024-02-21T02:59:50;10.37;;;2.80;;
78887;SDS011;68276;49.326;8.690;2024-02-21T03:02:16;12.10;;;2.58;;
78887;SDS011;68276;49.326;8.690;2024-02-21T03:04:42;8.30;;;2.97;;
78887;SDS011;68276;49.326;8.690;2024-02-21T03:07:11;9.98;;;2.60;;
78887;SDS011;68276;49.326;8.690;2024-02-21T03:09:37;9.32;;;2.60;;
78887;SDS011;68276;49.326;8.690;2024-02-21T03:12:03;9.40;;;2.83;;
78887;SDS011;68276;49.326;8.690;2024-02-21T03:14:29;12.43;;;2.80;;
78887;SDS011;68276;49.326;8.690;2024-02-21T03:16:54;13.57;;;2.50;;
78887;SDS011;68276;49.326;8.690;2024-02-21T03:19:20;11.02;;;2.58;;
78887;SDS011;68276;49.326;8.690;2024-02-21T03:21:45;10.93;;;2.30;;
78887;SDS011;68276;49.326;8.690;2024-02-21T03:24:11;13.98;;;2.28;;
78887;SDS011;68276;49.326;8.690;2024-02-21T03:26:36;6.83;;;2.40;;
78887;SDS011;68276;49.326;8.690;2024-02-21T03:29:03;12.30;;;2.90;;
78887;SDS011;68276;49.326;8.690;2024-02-21T03:31:28;12.43;;;2.50;;
78887;SDS011;68276;49.326;8.690;2024-02-21T03:33:54;9.57;;;2.38;;
78887;SDS011;68276;49.326;8.690;2024-02-21T03:36:19;8.52;;;2.80;;
78887;SDS011;68276;49.326;8.690;2024-02-21T03:38:45;13.47;;;2.90;;
78887;SDS011;68276;49.326;8.690;2024-02-21T03:41:10;11.85;;;2.60;;
78887;SDS011;68276;49.326;8.690;2024-02-21T03:43:37;8.40;;;2.10;;
78887;SDS011;68276;49.326;8.690;2024-02-21T03:46:03;11.25;;;2.53;;
78887;SDS011;68276;49.326;8.690;2024-02-21T03:48:28;11.30;;;2.53;;
78887;SDS011;68276;49.326;8.690;2024-02-21T03:50:54;10.70;;;2.50;;
78887;SDS011;68276;49.326;8.690;2024-02-21T03:53:19;9.83;;;2.20;;
78887;SDS011;68276;49.326;8.690;2024-02-21T03:55:44;9.20;;;2.33;;
78887;SDS011;68276;49.326;8.690;2024-02-21T03:58:10;10.63;;;2.20;;
78887;SDS011;68276;49.326;8.690;2024-02-21T04:00:35;10.40;;;2.40;;
78887;SDS011;68276;49.326;8.690;2024-02-21T04:03:01;8.50;;;2.33;;
78887;SDS011;68276;49.326;8.690;2024-02-21T04:05:26;7.93;;;2.08;;
78887;SDS011;68276;49.326;8.690;2024-02-21T04:07:53;10.20;;;2.40;;
78887;SDS011;68276;49.326;8.690;2024-02-21T04:10:18;10.02;;;2.90;;
78887;SDS011;68276;49.326;8.690;2024-02-21T04:12:44;12.27;;;2.80;;
78887;SDS011;68276;49.326;8.690;2024-02-21T04:15:09;11.27;;;2.37;;
78887;SDS011;68276;49.326;8.690;2024-02-21T04:17:35;11.52;;;2.08;;
78887;SDS011;68276;49.326;8.690;2024-02-21T04:22:32;9.40;;;2.28;;
78887;SDS011;68276;49.326;8.690;2024-02-21T04:25:02;9.18;;;2.08;;
78887;SDS011;68276;49.326;8.690;2024-02-21T04:27:27;8.57;;;2.30;;
78887;SDS011;68276;49.326;8.690;2024-02-21T04:29:54;8.60;;;2.67;;
78887;SDS011;68276;49.326;8.690;2024-02-21T04:32:20;11.95;;;2.60;;
78887;SDS011;68276;49.326;8.690;2024-02-21T04:34:45;9.80;;;2.70;;
78887;SDS011;68276;49.326;8.690;2024-02-21T04:37:11;9.75;;;2.60;;
78887;SDS011;68276;49.326;8.690;2024-02-21T04:39:36;8.83;;;2.47;;
78887;SDS011;68276;49.326;8.690;2024-02-21T04:42:03;11.90;;;2.63;;
78887;SDS011;68276;49.326;8.690;2024-02-21T04:44:28;11.70;;;2.75;;
78887;SDS011;68276;49.326;8.690;2024-02-21T04:46:53;10.33;;;2.47;;
78887;SDS011;68276;49.326;8.690;2024-02-21T04:49:19;11.03;;;2.50;;
78887;SDS011;68276;49.326;8.690;2024-02-21T04:51:44;9.30;;;2.77;;
78887;SDS011;68276;49.326;8.690;2024-02-21T04:54:10;8.88;;;2.03;;
78887;SDS011;68276;49.326;8.690;2024-02-21T04:56:35;9.13;;;2.37;;
78887;SDS011;68276;49.326;8.690;2024-02-21T04:59:00;11.80;;;2.17;;
78887;SDS011;68276;49.326;8.690;2024-02-21T05:01:26;15.03;;;2.73;;
78887;SDS011;68276;49.326;8.690;2024-02-21T05:03:53;7.80;;;2.63;;
78887;SDS011;68276;49.326;8.690;2024-02-21T05:06:18;8.60;;;2.42;;
78887;SDS011;68276;49.326;8.690;2024-02-21T05:08:43;10.70;;;2.22;;
78887;SDS011;68276;49.326;8.690;2024-02-21T05:11:09;12.10;;;2.55;;
78887;SDS011;68276;49.326;8.690;2024-02-21T05:13:35;12.17;;;2.57;;
78887;SDS011;68276;49.326;8.690;2024-02-21T05:16:00;7.17;;;2.63;;
78887;SDS011;68276;49.326;8.690;2024-02-21T05:18:27;11.55;;;2.65;;
78887;SDS011;68276;49.326;8.690;2024-02-21T05:20:53;11.20;;;2.65;;
78887;SDS011;68276;49.326;8.690;2024-02-21T05:23:19;8.75;;;2.60;;
78887;SDS011;68276;49.326;8.690;2024-02-21T05:25:44;13.57;;;3.27;;
78887;SDS011;68276;49.326;8.690;2024-02-21T05:28:09;10.38;;;2.75;;
78887;SDS011;68276;49.326;8.690;2024-02-21T05:30:35;12.23;;;3.00;;
78887;SDS011;68276;49.326;8.690;2024-02-21T05:33:06;9.75;;;2.45;;
78887;SDS011;68276;49.326;8.690;2024-02-21T05:35:32;10.20;;;2.83;;
78887;SDS011;68276;49.326;8.690;2024-02-21T05:37:57;11.32;;;3.05;;
78887;SDS011;68276;49.326;8.690;2024-02-21T05:40:24;9.93;;;2.65;;
78887;SDS011;68276;49.326;8.690;2024-02-21T05:42:50;13.93;;;3.10;;
78887;SDS011;68276;49.326;8.690;2024-02-21T05:45:17;9.27;;;2.40;;
78887;SDS011;68276;49.326;8.690;2024-02-21T05:47:42;11.60;;;2.90;;
78887;SDS011;68276;49.326;8.690;2024-02-21T05:50:08;14.43;;;2.92;;
78887;SDS011;68276;49.326;8.690;2024-02-21T05:52:34;9.63;;;2.88;;
78887;SDS011;68276;49.326;8.690;2024-02-21T05:54:59;11.83;;;2.70;;
78887;SDS011;68276;49.326;8.690;2024-02-21T05:57:25;9.80;;;2.87;;
78887;SDS011;68276;49.326;8.690;2024-02-21T05:59:50;12.87;;;2.87;;
78887;SDS011;68276;49.326;8.690;2024-02-21T06:02:15;13.02;;;3.00;;
78887;SDS011;68276;49.326;8.690;2024-02-21T06:04:41;13.40;;;3.27;;
78887;SDS011;68276;49.326;8.690;2024-02-21T06:07:07;13.38;;;2.53;;
78887;SDS011;68276;49.326;8.690;2024-02-21T06:09:34;10.32;;;2.75;;
78887;SDS011;68276;49.326;8.690;2024-02-21T06:11:59;12.27;;;3.22;;
78887;SDS011;68276;49.326;8.690;2024-02-21T06:14:25;9.53;;;3.10;;
78887;SDS011;68276;49.326;8.690;2024-02-21T06:16:50;8.98;;;2.80;;
78887;SDS011;68276;49.326;8.690;2024-02-21T06:19:15;8.43;;;2.53;;
78887;SDS011;68276;49.326;8.690;2024-02-21T06:21:41;9.50;;;2.77;;
78887;SDS011;68276;49.326;8.690;2024-02-21T06:24:06;11.90;;;3.13;;
78887;SDS011;68276;49.326;8.690;2024-02-21T06:26:32;10.70;;;3.05;;
78887;SDS011;68276;49.326;8.690;2024-02-21T06:28:57;8.20;;;2.50;;
78887;SDS011;68276;49.326;8.690;2024-02-21T06:31:24;14.13;;;4.18;;
78887;SDS011;68276;49.326;8.690;2024-02-21T06:33:50;12.05;;;4.25;;
78887;SDS011;68276;49.326;8.690;2024-02-21T06:36:15;14.48;;;6.13;;
78887;SDS011;68276;49.326;8.690;2024-02-21T06:38:41;11.07;;;4.17;;
78887;SDS011;68276;49.326;8.690;2024-02-21T06:41:06;15.93;;;7.37;;
78887;SDS011;68276;49.326;8.690;2024-02-21T06:43:39;26.30;;;13.70;;
78887;SDS011;68276;49.326;8.690;2024-02-21T06:46:04;12.53;;;4.37;;
78887;SDS011;68276;49.326;8.690;2024-02-21T06:48:29;15.40;;;4.93;;
78887;SDS011;68276;49.326;8.690;2024-02-21T06:50:55;11.33;;;4.10;;
78887;SDS011;68276;49.326;8.690;2024-02-21T06:53:20;11.35;;;2.65;;
78887;SDS011;68276;49.326;8.690;2024-02-21T06:55:46;8.50;;;3.13;;
78887;SDS011;68276;49.326;8.690;2024-02-21T06:58:11;11.87;;;3.33;;
78887;SDS011;68276;49.326;8.690;2024-02-21T07:00:37;10.02;;;3.10;;
78887;SDS011;68276;49.326;8.690;2024-02-21T07:03:03;9.20;;;2.97;;
78887;SDS011;68276;49.326;8.690;2024-02-21T07:05:29;8.32;;;2.65;;
78887;SDS011;68276;49.326;8.690;2024-02-21T07:07:54;11.27;;;2.60;;
78887;SDS011;68276;49.326;8.690;2024-02-21T07:10:19;10.23;;;2.50;;
78887;SDS011;68276;49.326;8.690;2024-02-21T07:12:45;12.70;;;3.22;;
78887;SDS011;68276;49.326;8.690;2024-02-21T07:15:10;10.15;;;2.60;;
78887;SDS011;68276;49.326;8.690;2024-02-21T07:17:36;10.73;;;2.53;;
78887;SDS011;68276;49.326;8.690;2024-02-21T07:20:01;9.43;;;2.42;;
78887;SDS011;68276;49.326;8.690;2024-02-21T07:22:27;10.27;;;2.80;;
78887;SDS011;68276;49.326;8.690;2024-02-21T07:24:52;9.23;;;2.53;;
78887;SDS011;68276;49.326;8.690;2024-02-21T07:27:17;12.20;;;2.30;;
78887;SDS011;68276;49.326;8.690;2024-02-21T07:29:43;9.93;;;2.37;;
78887;SDS011;68276;49.326;8.690;2024-02-21T07:32:12;9.23;;;2.17;;
78887;SDS011;68276;49.326;8.690;2024-02-21T07:34:37;10.77;;;2.45;;
78887;SDS011;68276;49.326;8.690;2024-02-21T07:37:03;9.23;;;2.87;;
78887;SDS011;68276;49.326;8.690;2024-02-21T07:39:28;10.02;;;2.75;;
78887;SDS011;68276;49.326;8.690;2024-02-21T07:41:54;9.30;;;2.30;;
78887;SDS011;68276;49.326;8.690;2024-02-21T07:44:19;10.88;;;2.63;;
78887;SDS011;68276;49.326;8.690;2024-02-21T07:46:44;7.53;;;2.00;;
78887;SDS011;68276;49.326;8.690;2024-02-21T07:49:10;13.70;;;2.60;;
78887;SDS011;68276;49.326;8.690;2024-02-21T07:51:35;11.70;;;2.47;;
78887;SDS011;68276;49.326;8.690;2024-02-21T07:54:01;9.15;;;2.30;;
78887;SDS011;68276;49.326;8.690;2024-02-21T07:56:27;9.63;;;2.15;;
78887;SDS011;68276;49.326;8.690;2024-02-21T07:58:52;10.30;;;2.65;;
78887;SDS011;68276;49.326;8.690;2024-02-21T08:01:21;9.57;;;2.70;;
78887;SDS011;68276;49.326;8.690;2024-02-21T08:03:46;9.30;;;2.50;;
78887;SDS011;68276;49.326;8.690;2024-02-21T08:06:12;11.75;;;2.95;;
78887;SDS011;68276;49.326;8.690;2024-02-21T08:08:38;11.50;;;2.75;;
78887;SDS011;68276;49.326;8.690;2024-02-21T08:11:04;10.02;;;3.28;;
78887;SDS011;68276;49.326;8.690;2024-02-21T08:13:30;11.02;;;3.05;;
78887;SDS011;68276;49.326;8.690;2024-02-21T08:15:55;13.55;;;3.42;;
78887;SDS011;68276;49.326;8.690;2024-02-21T08:18:22;12.70;;;3.22;;
78887;SDS011;68276;49.326;8.690;2024-02-21T08:20:47;11.02;;;2.42;;
78887;SDS011;68276;49.326;8.690;2024-02-21T08:23:15;12.23;;;2.43;;
78887;SDS011;68276;49.326;8.690;2024-02-21T08:25:41;10.93;;;2.28;;
78887;SDS011;68276;49.326;8.690;2024-02-21T08:28:06;8.68;;;2.22;;
78887;SDS011;68276;49.326;8.690;2024-02-21T08:30:33;8.65;;;2.22;;
78887;SDS011;68276;49.326;8.690;2024-02-21T08:32:58;8.02;;;2.15;;
78887;SDS011;68276;49.326;8.690;2024-02-21T08:35:24;15.30;;;3.17;;
78887;SDS011;68276;49.326;8.690;2024-02-21T08:37:49;11.00;;;2.80;;
78887;SDS011;68276;49.326;8.690;2024-02-21T08:40:15;10.68;;;2.80;;
78887;SDS011;68276;49.326;8.690;2024-02-21T08:42:44;9.20;;;2.58;;
78887;SDS011;68276;49.326;8.690;2024-02-21T08:45:10;10.23;;;2.03;;
78887;SDS011;68276;49.326;8.690;2024-02-21T08:47:35;8.40;;;2.55;;
78887;SDS011;68276;49.326;8.690;2024-02-21T08:50:04;9.75;;;2.50;;
78887;SDS011;68276;49.326;8.690;2024-02-21T08:52:30;9.98;;;2.95;;
78887;SDS011;68276;49.326;8.690;2024-02-21T08:54:56;9.23;;;2.42;;
78887;SDS011;68276;49.326;8.690;2024-02-21T08:57:21;9.73;;;2.40;;
78887;SDS011;68276;49.326;8.690;2024-02-21T08:59:47;8.02;;;2.45;;
78887;SDS011;68276;49.326;8.690;2024-02-21T09:02:12;9.23;;;2.40;;
78887;SDS011;68276;49.326;8.690;2024-02-21T09:04:38;8.45;;;2.92;;
78887;SDS011;68276;49.326;8.690;2024-02-21T09:07:03;10.87;;;2.83;;
78887;SDS011;68276;49.326;8.690;2024-02-21T09:09:29;11.07;;;2.72;;
78887;SDS011;68276;49.326;8.690;2024-02-21T09:11:54;13.05;;;2.65;;
78887;SDS011;68276;49.326;8.690;2024-02-21T09:14:20;11.13;;;2.60;;
78887;SDS011;68276;49.326;8.690;2024-02-21T09:16:45;10.10;;;2.90;;
78887;SDS011;68276;49.326;8.690;2024-02-21T09:19:10;9.80;;;2.30;;
78887;SDS011;68276;49.326;8.690;2024-02-21T09:21:39;9.63;;;2.20;;
78887;SDS011;68276;49.326;8.690;2024-02-21T09:24:06;10.05;;;2.28;;
78887;SDS011;68276;49.326;8.690;2024-02-21T09:26:31;11.82;;;2.75;;
78887;SDS011;68276;49.326;8.690;2024-02-21T09:28:57;10.57;;;2.30;;
78887;SDS011;68276;49.326;8.690;2024-02-21T09:31:22;10.80;;;2.10;;
78887;SDS011;68276;49.326;8.690;2024-02-21T09:33:48;8.70;;;2.40;;
78887;SDS011;68276;49.326;8.690;2024-02-21T09:36:13;16.13;;;2.50;;
78887;SDS011;68276;49.326;8.690;2024-02-21T09:38:39;8.48;;;2.28;;
78887;SDS011;68276;49.326;8.690;2024-02-21T09:43:34;12.73;;;2.88;;
78887;SDS011;68276;49.326;8.690;2024-02-21T09:46:00;9.30;;;2.20;;
78887;SDS011;68276;49.326;8.690;2024-02-21T09:50:57;9.68;;;2.78;;
78887;SDS011;68276;49.326;8.690;2024-02-21T09:55:50;9.63;;;2.15;;
78887;SDS011;68276;49.326;8.690;2024-02-21T09:58:16;6.50;;;1.70;;
78887;SDS011;68276;49.326;8.690;2024-02-21T10:00:41;13.43;;;2.53;;
78887;SDS011;68276;49.326;8.690;2024-02-21T10:03:06;8.17;;;2.03;;
78887;SDS011;68276;49.326;8.690;2024-02-21T10:05:35;6.50;;;1.92;;
78887;SDS011;68276;49.326;8.690;2024-02-21T10:10:27;8.10;;;1.98;;
78887;SDS011;68276;49.326;8.690;2024-02-21T10:12:54;8.80;;;2.25;;
78887;SDS011;68276;49.326;8.690;2024-02-21T10:15:21;7.20;;;1.77;;
78887;SDS011;68276;49.326;8.690;2024-02-21T10:18:00;9.35;;;2.08;;
78887;SDS011;68276;49.326;8.690;2024-02-21T10:20:26;9.05;;;1.98;;
78887;SDS011;68276;49.326;8.690;2024-02-21T10:25:28;6.93;;;1.85;;
78887;SDS011;68276;49.326;8.690;2024-02-21T10:27:55;8.82;;;1.67;;
78887;SDS011;68276;49.326;8.690;2024-02-21T10:30:22;8.30;;;1.65;;
78887;SDS011;68276;49.326;8.690;2024-02-21T10:32:51;7.73;;;1.97;;
78887;SDS011;68276;49.326;8.690;2024-02-21T10:35:33;8.60;;;1.63;;
78887;SDS011;68276;49.326;8.690;2024-02-21T10:37:59;5.93;;;1.63;;
78887;SDS011;68276;49.326;8.690;2024-02-21T10:40:28;8.50;;;1.50;;
78887;SDS011;68276;49.326;8.690;2024-02-21T10:42:59;5.85;;;1.30;;
78887;SDS011;68276;49.326;8.690;2024-02-21T10:45:34;6.57;;;1.50;;
78887;SDS011;68276;49.326;8.690;2024-02-21T10:48:08;8.43;;;1.88;;
78887;SDS011;68276;49.326;8.690;2024-02-21T10:50:40;7.30;;;1.30;;
78887;SDS011;68276;49.326;8.690;2024-02-21T10:59:02;6.88;;;1.58;;
78887;SDS011;68276;49.326;8.690;2024-02-21T11:01:29;7.07;;;1.35;;
78887;SDS011;68276;49.326;8.690;2024-02-21T11:04:01;8.75;;;1.67;;
78887;SDS011;68276;49.326;8.690;2024-02-21T11:06:29;9.15;;;1.50;;
78887;SDS011;68276;49.326;8.690;2024-02-21T11:11:28;8.65;;;1.80;;
78887;SDS011;68276;49.326;8.690;2024-02-21T11:14:03;8.32;;;1.50;;
78887;SDS011;68276;49.326;8.690;2024-02-21T11:19:08;5.80;;;1.42;;
78887;SDS011;68276;49.326;8.690;2024-02-21T11:21:46;10.18;;;1.38;;
78887;SDS011;68276;49.326;8.690;2024-02-21T11:24:34;9.55;;;1.52;;
78887;SDS011;68276;49.326;8.690;2024-02-21T11:27:09;6.65;;;1.45;;
78887;SDS011;68276;49.326;8.690;2024-02-21T11:29:42;5.35;;;1.48;;
78887;SDS011;68276;49.326;8.690;2024-02-21T11:32:11;10.00;;;2.10;;
78887;SDS011;68276;49.326;8.690;2024-02-21T11:34:40;6.95;;;1.60;;
78887;SDS011;68276;49.326;8.690;2024-02-21T11:37:16;8.40;;;1.63;;
78887;SDS011;68276;49.326;8.690;2024-02-21T11:39:41;7.32;;;1.63;;
78887;SDS011;68276;49.326;8.690;2024-02-21T11:42:07;8.77;;;1.67;;
78887;SDS011;68276;49.326;8.690;2024-02-21T11:47:05;8.88;;;1.88;;
78887;SDS011;68276;49.326;8.690;2024-02-21T11:49:36;8.55;;;2.00;;
78887;SDS011;68276;49.326;8.690;2024-02-21T11:52:11;8.98;;;1.90;;
78887;SDS011;68276;49.326;8.690;2024-02-21T11:54:36;8.63;;;1.33;;
78887;SDS011;68276;49.326;8.690;2024-02-21T11:57:02;6.50;;;1.52;;
78887;SDS011;68276;49.326;8.690;2024-02-21T11:59:32;7.47;;;1.70;;
78887;SDS011;68276;49.326;8.690;2024-02-21T12:02:01;9.75;;;1.60;;
78887;SDS011;68276;49.326;8.690;2024-02-21T12:04:30;4.72;;;1.10;;
78887;SDS011;68276;49.326;8.690;2024-02-21T12:06:58;4.53;;;1.23;;
78887;SDS011;68276;49.326;8.690;2024-02-21T12:09:24;9.05;;;1.55;;
78887;SDS011;68276;49.326;8.690;2024-02-21T12:11:56;7.20;;;1.55;;
78887;SDS011;68276;49.326;8.690;2024-02-21T12:14:24;5.18;;;1.38;;
78887;SDS011;68276;49.326;8.690;2024-02-21T12:16:50;7.65;;;1.67;;
78887;SDS011;68276;49.326;8.690;2024-02-21T12:19:15;8.23;;;1.40;;
78887;SDS011;68276;49.326;8.690;2024-02-21T12:21:42;7.30;;;1.30;;
78887;SDS011;68276;49.326;8.690;2024-02-21T12:26:48;7.97;;;1.50;;
78887;SDS011;68276;49.326;8.690;2024-02-21T12:29:20;6.30;;;1.40;;
78887;SDS011;68276;49.326;8.690;2024-02-21T12:31:46;9.25;;;1.67;;
78887;SDS011;68276;49.326;8.690;2024-02-21T12:34:12;7.10;;;1.30;;
78887;SDS011;68276;49.326;8.690;2024-02-21T12:36:41;6.15;;;1.25;;
78887;SDS011;68276;49.326;8.690;2024-02-21T12:39:08;3.83;;;1.27;;
78887;SDS011;68276;49.326;8.690;2024-02-21T12:41:34;8.68;;;1.60;;
78887;SDS011;68276;49.326;8.690;2024-02-21T12:44:03;6.70;;;1.40;;
78887;SDS011;68276;49.326;8.690;2024-02-21T12:46:37;8.10;;;1.35;;
78887;SDS011;68276;49.326;8.690;2024-02-21T12:49:04;6.28;;;1.45;;
78887;SDS011;68276;49.326;8.690;2024-02-21T12:51:32;7.93;;;1.48;;
78887;SDS011;68276;49.326;8.690;2024-02-21T12:53:57;3.38;;;1.08;;
78887;SDS011;68276;49.326;8.690;2024-02-21T12:56:23;9.93;;;1.95;;
78887;SDS011;68276;49.326;8.690;2024-02-21T12:58:51;7.25;;;1.30;;
78887;SDS011;68276;49.326;8.690;2024-02-21T13:01:16;6.73;;;1.37;;
78887;SDS011;68276;49.326;8.690;2024-02-21T13:03:42;10.40;;;1.50;;
78887;SDS011;68276;49.326;8.690;2024-02-21T13:06:07;7.45;;;1.40;;
78887;SDS011;68276;49.326;8.690;2024-02-21T13:08:36;6.82;;;1.50;;
78887;SDS011;68276;49.326;8.690;2024-02-21T13:11:02;4.88;;;1.10;;
78887;SDS011;68276;49.326;8.690;2024-02-21T13:13:27;9.98;;;1.20;;
78887;SDS011;68276;49.326;8.690;2024-02-21T13:15:53;5.23;;;1.20;;
78887;SDS011;68276;49.326;8.690;2024-02-21T13:18:18;4.83;;;1.17;;
78887;SDS011;68276;49.326;8.690;2024-02-21T13:20:43;11.20;;;1.73;;
78887;SDS011;68276;49.326;8.690;2024-02-21T13:23:09;7.53;;;1.43;;
78887;SDS011;68276;49.326;8.690;2024-02-21T13:25:34;5.10;;;1.20;;
78887;SDS011;68276;49.326;8.690;2024-02-21T13:28:00;4.53;;;1.03;;
78887;SDS011;68276;49.326;8.690;2024-02-21T13:30:25;5.43;;;1.20;;
78887;SDS011;68276;49.326;8.690;2024-02-21T13:32:51;10.65;;;1.83;;
78887;SDS011;68276;49.326;8.690;2024-02-21T13:35:17;7.72;;;1.52;;
78887;SDS011;68276;49.326;8.690;2024-02-21T13:37:42;5.50;;;1.30;;
78887;SDS011;68276;49.326;8.690;2024-02-21T13:40:08;7.45;;;1.42;;
78887;SDS011;68276;49.326;8.690;2024-02-21T13:42:35;6.82;;;1.40;;
78887;SDS011;68276;49.326;8.690;2024-02-21T13:45:00;7.10;;;1.25;;
78887;SDS011;68276;49.326;8.690;2024-02-21T13:47:26;5.43;;;1.30;;
78887;SDS011;68276;49.326;8.690;2024-02-21T13:49:52;6.67;;;1.47;;
78887;SDS011;68276;49.326;8.690;2024-02-21T13:52:17;7.33;;;1.50;;
78887;SDS011;68276;49.326;8.690;2024-02-21T13:54:45;9.05;;;1.45;;
78887;SDS011;68276;49.326;8.690;2024-02-21T13:57:11;6.32;;;1.33;;
78887;SDS011;68276;49.326;8.690;2024-02-21T13:59:37;4.13;;;1.20;;
78887;SDS011;68276;49.326;8.690;2024-02-21T14:02:02;8.03;;;1.83;;
78887;SDS011;68276;49.326;8.690;2024-02-21T14:04:28;6.63;;;1.60;;
78887;SDS011;68276;49.326;8.690;2024-02-21T14:06:55;7.95;;;1.50;;
78887;SDS011;68276;49.326;8.690;2024-02-21T14:09:20;5.32;;;1.42;;
78887;SDS011;68276;49.326;8.690;2024-02-21T14:11:46;8.57;;;1.40;;
78887;SDS011;68276;49.326;8.690;2024-02-21T14:14:11;8.05;;;1.60;;
78887;SDS011;68276;49.326;8.690;2024-02-21T14:16:37;9.87;;;1.83;;
78887;SDS011;68276;49.326;8.690;2024-02-21T14:19:02;7.03;;;2.27;;
78887;SDS011;68276;49.326;8.690;2024-02-21T14:21:28;9.32;;;1.55;;
78887;SDS011;68276;49.326;8.690;2024-02-21T14:23:53;9.35;;;1.50;;
78887;SDS011;68276;49.326;8.690;2024-02-21T14:26:19;5.00;;;1.33;;
78887;SDS011;68276;49.326;8.690;2024-02-21T14:28:44;7.68;;;1.60;;
78887;SDS011;68276;49.326;8.690;2024-02-21T14:31:11;8.00;;;1.50;;
78887;SDS011;68276;49.326;8.690;2024-02-21T14:33:36;6.78;;;1.35;;
78887;SDS011;68276;49.326;8.690;2024-02-21T14:36:02;9.43;;;1.70;;
78887;SDS011;68276;49.326;8.690;2024-02-21T14:38:28;4.90;;;1.20;;
78887;SDS011;68276;49.326;8.690;2024-02-21T14:40:53;6.72;;;1.13;;
78887;SDS011;68276;49.326;8.690;2024-02-21T14:43:19;7.28;;;1.30;;
78887;SDS011;68276;49.326;8.690;2024-02-21T14:45:48;4.57;;;1.25;;
78887;SDS011;68276;49.326;8.690;2024-02-21T14:48:13;6.47;;;1.45;;
78887;SDS011;68276;49.326;8.690;2024-02-21T14:50:39;6.72;;;1.23;;
78887;SDS011;68276;49.326;8.690;2024-02-21T14:53:05;5.53;;;1.08;;
78887;SDS011;68276;49.326;8.690;2024-02-21T14:55:32;4.32;;;1.17;;
78887;SDS011;68276;49.326;8.690;2024-02-21T14:57:58;5.10;;;1.05;;
78887;SDS011;68276;49.326;8.690;2024-02-21T15:00:23;4.72;;;1.02;;
78887;SDS011;68276;49.326;8.690;2024-02-21T15:02:55;7.20;;;1.58;;
78887;SDS011;68276;49.326;8.690;2024-02-21T15:05:21;5.30;;;1.10;;
78887;SDS011;68276;49.326;8.690;2024-02-21T15:07:47;5.30;;;1.38;;
78887;SDS011;68276;49.326;8.690;2024-02-21T15:10:12;4.93;;;1.50;;
78887;SDS011;68276;49.326;8.690;2024-02-21T15:12:38;6.60;;;1.58;;